Time;durP1;ratioP1;P1;durP2;ratioP2;P2;SDS_P1;SDS_P2;PMS_P1;PMS_P2;Temp;Humidity;BMP_temperature;BMP_pressure;BME280_temperature;BME280_humidity;BME280_pressure;Samples;Min_cycle;Max_cycle;Signal;HPM_P1;HPM_P2
2022/01/26 00:07:16;;;;;;;85.50;39.45;;;;;;;3.14;97.73;103448.94;5078528;28;20135;-76
2022/01/26 00:09:42;;;;;;;83.70;36.85;;;;;;;3.14;98.22;103459.34;5061824;28;20107;-77
2022/01/26 00:12:09;;;;;;;88.35;39.70;;;;;;;3.15;98.02;103445.59;5091099;28;20063;-76
2022/01/26 00:14:34;;;;;;;85.00;38.13;;;;;;;3.17;97.49;103444.00;5080570;28;20078;-77
2022/01/26 00:17:01;;;;;;;82.68;38.22;;;;;;;3.17;98.61;103447.53;5061103;28;20036;-76
2022/01/26 00:19:47;;;;;;;90.57;41.38;;;;;;;3.19;99.38;103440.78;5079703;28;20357;-78
2022/01/26 00:22:23;;;;;;;91.35;40.13;;;;;;;3.19;98.19;103434.66;5086418;28;20036;-78
2022/01/26 00:25:19;;;;;;;91.88;39.65;;;;;;;3.18;98.95;103425.03;5079676;28;20024;-77
2022/01/26 00:28:07;;;;;;;90.70;41.80;;;;;;;3.17;98.71;103424.13;5083538;28;20110;-78
2022/01/26 00:41:06;;;;;;;89.60;39.10;;;;;;;3.18;97.59;103410.31;5090091;28;20091;-77
2022/01/26 00:43:33;;;;;;;95.00;41.85;;;;;;;3.19;98.20;103416.47;5088350;28;20035;-78
2022/01/26 00:46:00;;;;;;;96.85;41.35;;;;;;;3.18;98.06;103412.03;5063363;28;20051;-78
2022/01/26 00:48:27;;;;;;;96.82;43.67;;;;;;;3.19;98.36;103424.25;5080256;28;20044;-78
2022/01/26 00:50:54;;;;;;;97.97;42.75;;;;;;;3.19;97.78;103413.84;5069428;28;20033;-78
2022/01/26 00:53:27;;;;;;;90.88;39.88;;;;;;;3.22;97.45;103403.72;5058944;28;20447;-77
2022/01/26 00:55:53;;;;;;;87.20;39.88;;;;;;;3.23;97.41;103413.34;5079297;28;20036;-78
2022/01/26 00:58:19;;;;;;;91.47;40.40;;;;;;;3.26;97.25;103407.50;5064076;28;20036;-77
2022/01/26 01:00:44;;;;;;;88.05;40.05;;;;;;;3.25;97.26;103406.56;5080199;28;20118;-78
2022/01/26 01:03:10;;;;;;;90.80;40.45;;;;;;;3.24;97.46;103402.13;5084621;28;20031;-77
2022/01/26 01:05:42;;;;;;;86.75;41.08;;;;;;;3.23;97.41;103394.19;5084260;28;20119;-77
2022/01/26 01:08:15;;;;;;;86.55;38.65;;;;;;;3.23;97.23;103397.72;5086477;28;20028;-76
2022/01/26 01:10:44;;;;;;;85.32;38.63;;;;;;;3.22;97.02;103401.09;5057800;28;20127;-78
2022/01/26 01:13:15;;;;;;;94.63;41.28;;;;;;;3.24;97.12;103380.41;5058345;28;20177;-79
2022/01/26 01:15:41;;;;;;;86.22;38.13;;;;;;;3.23;97.10;103384.72;5058376;28;20044;-77
2022/01/26 01:18:20;;;;;;;93.20;40.17;;;;;;;3.19;97.19;103375.72;5078942;28;20051;-78
2022/01/26 01:26:20;;;;;;;95.38;37.65;;;;;;;3.20;97.32;103379.22;5087138;28;20036;-77
2022/01/26 01:31:16;;;;;;;96.38;41.35;;;;;;;3.18;97.85;103373.91;5077051;28;20037;-78
2022/01/26 01:33:47;;;;;;;104.60;41.63;;;;;;;3.15;98.52;103373.63;5061991;28;20089;-78
2022/01/26 01:36:13;;;;;;;92.13;40.00;;;;;;;3.16;98.07;103374.53;5071642;28;20391;-78
2022/01/26 01:38:41;;;;;;;99.85;43.08;;;;;;;3.14;98.30;103366.59;5084986;28;20103;-77
2022/01/26 01:41:07;;;;;;;94.70;41.20;;;;;;;3.14;98.00;103357.91;5063601;28;20035;-77
2022/01/26 01:43:33;;;;;;;92.53;40.78;;;;;;;3.14;97.76;103363.09;5057313;28;20399;-77
2022/01/26 01:45:58;;;;;;;98.28;41.72;;;;;;;3.16;97.90;103354.66;5079746;28;20396;-77
2022/01/26 01:48:29;;;;;;;98.13;41.85;;;;;;;3.18;98.09;103360.00;5058217;28;20048;-77
2022/01/26 01:50:57;;;;;;;97.63;41.47;;;;;;;3.20;98.22;103350.59;5077917;28;20028;-76
2022/01/26 01:53:35;;;;;;;100.13;41.97;;;;;;;3.19;97.78;103348.81;5088714;28;20023;-77
2022/01/26 01:56:01;;;;;;;99.05;41.83;;;;;;;3.16;97.06;103344.25;5064543;28;20430;-77
2022/01/26 01:58:27;;;;;;;92.85;39.45;;;;;;;3.18;97.42;103341.78;5079554;28;20016;-78
2022/01/26 02:00:53;;;;;;;90.45;40.22;;;;;;;3.17;97.42;103339.94;5076249;28;20025;-78
2022/01/26 02:03:18;;;;;;;93.80;40.72;;;;;;;3.17;97.38;103334.75;5088029;28;20533;-78
2022/01/26 02:05:44;;;;;;;96.47;41.17;;;;;;;3.17;97.64;103339.94;5058754;28;20020;-77
2022/01/26 02:08:09;;;;;;;94.97;41.55;;;;;;;3.14;97.66;103337.97;5059383;28;20040;-78
2022/01/26 02:10:36;;;;;;;93.47;39.10;;;;;;;3.16;98.14;103335.50;5061139;28;20035;-77
2022/01/26 02:13:09;;;;;;;92.80;42.22;;;;;;;3.15;97.58;103336.31;5079634;28;20042;-78
2022/01/26 02:15:44;;;;;;;98.75;42.03;;;;;;;3.17;97.82;103330.47;5059790;28;20115;-77
2022/01/26 02:18:29;;;;;;;98.60;41.75;;;;;;;3.18;98.28;103339.16;5075635;28;20079;-77
2022/01/26 02:55:48;;;;;;;90.57;37.83;;;;;;;3.20;97.51;103320.31;5100635;28;20034;-77
2022/01/26 02:59:08;;;;;;;93.82;38.50;;;;;;;3.16;98.33;103306.88;5103019;28;20115;-77
2022/01/26 03:03:59;;;;;;;89.80;37.15;;;;;;;3.10;99.01;103301.19;5102687;28;20038;-77
2022/01/26 03:06:32;;;;;;;99.22;38.13;;;;;;;3.12;98.76;103289.19;5106841;28;20057;-78
2022/01/26 03:09:04;;;;;;;101.63;39.03;;;;;;;3.07;99.57;103291.41;5080577;28;20069;-79
2022/01/26 03:11:33;;;;;;;95.75;39.03;;;;;;;3.07;100.00;103275.81;5086779;28;20027;-77
2022/01/26 03:14:08;;;;;;;95.93;39.53;;;;;;;3.12;99.73;103268.38;5086204;28;20035;-76
2022/01/26 03:16:40;;;;;;;94.03;37.65;;;;;;;3.11;99.88;103261.38;5094920;28;20517;-76
2022/01/26 03:21:52;;;;;;;106.03;40.63;;;;;;;3.09;100.00;103283.75;5094444;28;20479;-77
2022/01/26 03:35:39;;;;;;;96.32;39.28;;;;;;;3.08;100.00;103276.69;5085632;28;20092;-79
2022/01/26 03:38:05;;;;;;;97.72;38.33;;;;;;;3.10;100.00;103268.25;5077606;28;20020;-80
2022/01/26 03:40:34;;;;;;;95.43;39.95;;;;;;;3.08;100.00;103271.50;5082216;28;20050;-79
2022/01/26 03:43:00;;;;;;;103.85;40.80;;;;;;;3.12;100.00;103264.13;5087847;28;20024;-79
2022/01/26 03:45:26;;;;;;;103.68;41.60;;;;;;;3.10;100.00;103265.66;5087825;28;20035;-80
2022/01/26 03:47:52;;;;;;;97.65;39.42;;;;;;;3.07;100.00;103274.91;5084854;28;20114;-79
2022/01/26 03:50:18;;;;;;;101.68;41.75;;;;;;;3.07;100.00;103283.59;5102432;28;20066;-78
2022/01/26 03:52:43;;;;;;;107.60;42.05;;;;;;;3.10;100.00;103307.28;5101664;28;20047;-79
2022/01/26 03:55:09;;;;;;;104.30;40.40;;;;;;;3.12;100.00;103310.94;5076645;28;20499;-78
2022/01/26 03:57:34;;;;;;;105.35;42.10;;;;;;;3.12;100.00;103316.13;5095145;28;20020;-79
2022/01/26 03:59:59;;;;;;;96.03;38.85;;;;;;;3.16;100.00;103317.28;5087411;28;20027;-79
2022/01/26 04:02:25;;;;;;;103.30;42.42;;;;;;;3.18;100.00;103305.34;5081382;28;20482;-79
2022/01/26 04:04:56;;;;;;;110.38;42.85;;;;;;;3.21;100.00;103313.41;5100621;28;20077;-79
2022/01/26 04:07:22;;;;;;;108.07;42.15;;;;;;;3.15;100.00;103316.41;5099937;28;20039;-79
2022/01/26 04:09:47;;;;;;;109.47;43.22;;;;;;;3.15;100.00;103318.09;5098332;28;20053;-79
2022/01/26 04:12:13;;;;;;;109.85;42.63;;;;;;;3.16;100.00;103330.31;5094365;28;20044;-78
2022/01/26 04:14:40;;;;;;;104.50;41.38;;;;;;;3.14;100.00;103324.97;5084485;28;20422;-79
2022/01/26 04:17:05;;;;;;;109.53;42.83;;;;;;;3.09;100.00;103341.88;5082191;28;20048;-78
2022/01/26 04:19:34;;;;;;;106.05;43.63;;;;;;;3.15;100.00;103351.91;5081464;28;20028;-80
2022/01/26 04:22:10;;;;;;;108.88;42.35;;;;;;;3.15;100.00;103357.13;5094957;28;20020;-79
2022/01/26 04:24:44;;;;;;;110.63;42.72;;;;;;;3.15;100.00;103346.72;5085512;28;20484;-79
2022/01/26 04:27:24;;;;;;;;;;;;;;;3.16;100.00;103322.50;5091568;28;20501;-80
2022/01/26 04:29:50;;;;;;;117.63;42.95;;;;;;;3.19;100.00;103301.97;5086142;28;19912;-79
2022/01/26 04:32:17;;;;;;;113.93;43.20;;;;;;;3.15;100.00;103299.88;5088903;28;20055;-78
2022/01/26 04:34:45;;;;;;;113.85;42.65;;;;;;;3.16;100.00;103292.22;5085528;28;20030;-78
2022/01/26 04:39:45;;;;;;;110.97;40.95;;;;;;;3.15;100.00;103272.16;5103352;28;20055;-79
2022/01/26 04:42:17;;;;;;;114.35;42.17;;;;;;;3.19;100.00;103271.66;5104095;28;20047;-78
2022/01/26 04:44:50;;;;;;;118.90;43.50;;;;;;;3.23;100.00;103282.31;5098703;28;20024;-79
2022/01/26 04:47:15;;;;;;;109.30;42.97;;;;;;;3.24;100.00;103305.84;5097651;28;20101;-79
2022/01/26 04:49:40;;;;;;;112.72;41.67;;;;;;;3.21;100.00;103297.81;5110495;28;20036;-79
2022/01/26 04:52:06;;;;;;;110.68;42.45;;;;;;;3.22;100.00;103293.53;5104439;28;20032;-79
2022/01/26 04:54:31;;;;;;;111.07;42.05;;;;;;;3.25;100.00;103293.78;5088220;28;20048;-79
2022/01/26 04:56:57;;;;;;;118.22;44.50;;;;;;;3.27;100.00;103294.81;5079499;28;20036;-80
2022/01/26 04:59:22;;;;;;;117.18;43.65;;;;;;;3.27;100.00;103295.75;5080908;28;20023;-79
2022/01/26 05:01:47;;;;;;;108.70;41.67;;;;;;;3.29;100.00;103304.56;5101488;28;20045;-78
2022/01/26 05:04:13;;;;;;;106.43;39.25;;;;;;;3.32;100.00;103294.44;5101532;28;20036;-79
2022/01/26 05:06:38;;;;;;;113.05;41.45;;;;;;;3.33;100.00;103296.25;5098866;28;20027;-79
2022/01/26 05:09:04;;;;;;;103.80;38.97;;;;;;;3.38;100.00;103289.75;5098226;28;20169;-79
2022/01/26 05:11:41;;;;;;;94.43;36.50;;;;;;;3.41;100.00;103277.78;5083445;28;20020;-80
2022/01/26 05:14:07;;;;;;;89.22;34.17;;;;;;;3.45;100.00;103262.56;5087951;28;20039;-79
2022/01/26 05:16:33;;;;;;;81.30;32.22;;;;;;;3.45;100.00;103279.88;5084753;28;20019;-80
2022/01/26 05:18:59;;;;;;;78.55;33.05;;;;;;;3.47;100.00;103267.88;5102326;28;20084;-81
2022/01/26 05:21:26;;;;;;;68.68;28.80;;;;;;;3.50;100.00;103278.56;5105795;28;20016;-79
2022/01/26 05:23:53;;;;;;;60.60;28.52;;;;;;;3.48;100.00;103285.34;5090700;28;20026;-81
2022/01/26 05:26:18;;;;;;;66.50;28.20;;;;;;;3.44;100.00;103278.06;5096800;28;20073;-79
2022/01/26 05:28:43;;;;;;;66.88;29.13;;;;;;;3.38;100.00;103252.41;5105471;28;20100;-79
2022/01/26 05:31:09;;;;;;;63.17;28.40;;;;;;;3.41;100.00;103270.88;5097806;28;20110;-80
2022/01/26 05:33:34;;;;;;;63.83;30.17;;;;;;;3.38;100.00;103266.31;5079229;28;20036;-78
2022/01/26 05:36:00;;;;;;;65.97;26.92;;;;;;;3.35;100.00;103253.06;5098609;28;20031;-79
2022/01/26 05:38:25;;;;;;;63.33;27.92;;;;;;;3.32;100.00;103273.63;5102365;28;20054;-79
2022/01/26 05:40:51;;;;;;;61.60;27.27;;;;;;;3.30;100.00;103276.88;5096386;28;20092;-79
2022/01/26 05:43:17;;;;;;;58.90;29.08;;;;;;;3.30;100.00;103280.38;5080752;28;20032;-79
2022/01/26 05:45:48;;;;;;;66.68;28.52;;;;;;;3.26;100.00;103270.50;5093481;28;20454;-82
2022/01/26 05:48:14;;;;;;;61.47;29.42;;;;;;;3.27;100.00;103282.72;5097510;28;20064;-79
2022/01/26 05:50:49;;;;;;;66.45;28.02;;;;;;;3.30;100.00;103288.19;5108497;28;20032;-79
2022/01/26 05:53:16;;;;;;;67.90;29.10;;;;;;;3.26;100.00;103290.41;5109162;28;20027;-81
2022/01/26 05:55:42;;;;;;;68.63;30.65;;;;;;;3.23;100.00;103303.13;5082631;28;20032;-78
2022/01/26 05:58:07;;;;;;;76.95;32.60;;;;;;;3.22;100.00;103312.63;5083236;28;20045;-73
2022/01/26 06:00:32;;;;;;;72.68;30.92;;;;;;;3.20;100.00;103314.19;5081804;28;20053;-73
2022/01/26 06:02:58;;;;;;;74.75;31.40;;;;;;;3.19;100.00;103314.97;5110867;28;20032;-73
2022/01/26 06:05:23;;;;;;;78.05;34.78;;;;;;;3.23;100.00;103314.47;5108756;28;20459;-73
2022/01/26 06:07:48;;;;;;;73.50;31.45;;;;;;;3.17;100.00;103308.72;5084327;28;20058;-73
2022/01/26 06:10:14;;;;;;;75.45;34.00;;;;;;;3.15;100.00;103294.69;5098426;28;20038;-72
2022/01/26 06:12:39;;;;;;;79.68;34.50;;;;;;;3.11;100.00;103283.09;5101091;28;20028;-74
2022/01/26 06:15:05;;;;;;;74.85;32.65;;;;;;;3.08;100.00;103276.69;5077916;28;20042;-74
2022/01/26 06:17:32;;;;;;;83.30;34.00;;;;;;;3.10;100.00;103273.47;5080075;28;20119;-73
2022/01/26 06:19:57;;;;;;;80.35;33.75;;;;;;;3.08;100.00;103264.63;5082814;28;20030;-74
2022/01/26 06:22:22;;;;;;;74.60;32.10;;;;;;;3.10;100.00;103269.97;5080293;28;20106;-73
2022/01/26 06:24:48;;;;;;;76.38;32.88;;;;;;;3.11;100.00;103266.59;5099587;28;20537;-73
2022/01/26 06:27:13;;;;;;;70.38;32.53;;;;;;;3.08;100.00;103276.69;5094870;28;20528;-74
2022/01/26 06:29:39;;;;;;;72.93;31.90;;;;;;;3.08;100.00;103268.91;5084437;28;20028;-75
2022/01/26 06:32:05;;;;;;;70.60;30.70;;;;;;;3.07;100.00;103267.09;5084427;28;20097;-74
2022/01/26 06:34:31;;;;;;;78.20;32.00;;;;;;;3.10;100.00;103260.44;5094811;28;20039;-74
2022/01/26 06:36:57;;;;;;;75.63;31.60;;;;;;;3.15;100.00;103258.25;5103993;28;20468;-72
2022/01/26 06:39:22;;;;;;;74.40;31.52;;;;;;;3.11;100.00;103266.59;5101999;28;20173;-73
2022/01/26 06:41:54;;;;;;;72.03;32.58;;;;;;;3.10;100.00;103259.56;5096231;28;20024;-74
2022/01/26 06:44:26;;;;;;;71.10;30.50;;;;;;;3.04;100.00;103262.53;5105387;28;20491;-74
2022/01/26 06:51:53;;;;;;;79.25;32.10;;;;;;;3.14;100.00;103300.66;5097601;28;20143;-74
2022/01/26 06:54:20;;;;;;;70.55;29.85;;;;;;;3.14;100.00;103298.97;5102650;28;20579;-72
2022/01/26 06:56:45;;;;;;;70.25;30.48;;;;;;;3.13;100.00;103291.94;5082881;28;20051;-73
2022/01/26 06:59:12;;;;;;;67.03;28.75;;;;;;;3.09;100.00;103284.63;5083712;28;20042;-73
2022/01/26 07:01:38;;;;;;;66.43;30.02;;;;;;;3.08;100.00;103269.84;5082590;28;20034;-71
2022/01/26 07:04:04;;;;;;;68.45;28.88;;;;;;;3.09;100.00;103278.53;5103530;28;20066;-72
2022/01/26 07:06:29;;;;;;;63.75;27.48;;;;;;;3.09;100.00;103283.75;5102963;28;20080;-72
2022/01/26 07:08:55;;;;;;;66.25;27.58;;;;;;;3.07;100.00;103283.59;5075372;28;20191;-73
2022/01/26 07:11:20;;;;;;;62.67;26.85;;;;;;;3.12;100.00;103295.34;5099342;28;20038;-72
2022/01/26 07:13:46;;;;;;;68.60;27.70;;;;;;;3.09;100.00;103304.53;5097614;28;20019;-72
2022/01/26 07:21:39;;;;;;;60.13;26.17;;;;;;;3.15;100.00;103323.31;5106336;28;20035;-73
2022/01/26 07:24:05;;;;;;;62.95;27.17;;;;;;;3.17;100.00;103314.84;5101097;28;20024;-72
2022/01/26 07:26:31;;;;;;;60.50;26.73;;;;;;;3.16;100.00;103317.28;5075790;28;20400;-73
2022/01/26 07:28:58;;;;;;;64.22;27.38;;;;;;;3.18;100.00;103332.25;5104752;28;20028;-73
2022/01/26 07:31:24;;;;;;;60.40;27.85;;;;;;;3.18;100.00;103319.25;5098623;28;20036;-72
2022/01/26 07:33:57;;;;;;;66.05;27.08;;;;;;;3.19;100.00;103322.78;5110595;28;20468;-72
2022/01/26 07:36:24;;;;;;;61.13;26.95;;;;;;;3.20;100.00;103324.59;5083540;28;20027;-74
2022/01/26 07:38:50;;;;;;;60.45;26.27;;;;;;;3.22;100.00;103310.03;5081080;28;20152;-73
2022/01/26 07:41:16;;;;;;;54.53;26.17;;;;;;;3.26;100.00;103313.81;5092998;28;20015;-72
2022/01/26 07:43:41;;;;;;;56.20;23.35;;;;;;;3.30;100.00;103306.41;5092348;28;20152;-72
2022/01/26 07:46:09;;;;;;;55.78;24.13;;;;;;;3.34;100.00;103302.38;5109772;28;20548;-73
2022/01/26 07:48:34;;;;;;;52.60;22.52;;;;;;;3.40;100.00;103325.41;5109891;28;20468;-72
2022/01/26 07:50:59;;;;;;;57.72;25.80;;;;;;;3.42;100.00;103316.03;5102558;28;20093;-73
2022/01/26 07:53:25;;;;;;;52.33;22.65;;;;;;;3.40;100.00;103312.41;5103564;28;20077;-73
2022/01/26 07:55:50;;;;;;;53.45;23.73;;;;;;;3.44;100.00;103319.69;5077200;28;20475;-73
2022/01/26 07:58:18;;;;;;;56.47;23.90;;;;;;;3.43;100.00;103313.59;5105987;28;20158;-73
2022/01/26 08:00:43;;;;;;;63.75;26.70;;;;;;;3.41;100.00;103311.63;5104510;28;20036;-73
2022/01/26 08:03:08;;;;;;;57.03;24.98;;;;;;;3.41;100.00;103312.53;5099865;28;20047;-73
2022/01/26 08:05:34;;;;;;;64.00;25.60;;;;;;;3.47;100.00;103317.34;5080375;28;20130;-72
2022/01/26 08:07:59;;;;;;;51.72;22.38;;;;;;;3.47;100.00;103314.75;5107852;28;20041;-73
2022/01/26 08:10:24;;;;;;;57.85;23.27;;;;;;;3.50;100.00;103312.38;5103376;28;20111;-72
2022/01/26 08:12:50;;;;;;;50.28;23.55;;;;;;;3.52;100.00;103323.84;5110458;28;20065;-72
2022/01/26 08:15:16;;;;;;;61.47;23.40;;;;;;;3.54;100.00;103310.19;5102780;28;20027;-71
2022/01/26 08:17:42;;;;;;;56.20;23.95;;;;;;;3.53;100.00;103305.75;5101973;28;20157;-72
2022/01/26 08:20:10;;;;;;;52.53;21.17;;;;;;;3.57;100.00;103306.94;5110699;27;20039;-71
2022/01/26 08:22:35;;;;;;;51.75;21.50;;;;;;;3.57;100.00;103306.00;5090323;28;20383;-71
2022/01/26 08:25:00;;;;;;;59.03;21.70;;;;;;;3.55;100.00;103318.91;5110650;27;20031;-71
2022/01/26 08:27:29;;;;;;;57.03;22.00;;;;;;;3.56;100.00;103309.44;5107251;27;20032;-72
2022/01/26 08:30:03;;;;;;;48.40;21.35;;;;;;;3.53;100.00;103304.88;5104143;27;20016;-72
2022/01/26 08:32:28;;;;;;;51.88;20.35;;;;;;;3.49;100.00;103318.41;5096118;28;20028;-72
2022/01/26 08:34:54;;;;;;;58.00;22.85;;;;;;;3.50;100.00;103318.53;5106927;28;20034;-72
2022/01/26 08:37:19;;;;;;;52.40;21.95;;;;;;;3.48;100.00;103322.69;5105503;27;20047;-72
2022/01/26 08:39:45;;;;;;;53.40;21.70;;;;;;;3.50;100.00;103322.81;5099409;28;20329;-72
2022/01/26 08:42:10;;;;;;;52.05;24.30;;;;;;;3.52;100.00;103311.75;5087870;28;20071;-73
2022/01/26 08:44:36;;;;;;;58.38;23.77;;;;;;;3.54;100.00;103307.59;5103707;27;20483;-72
2022/01/26 08:47:05;;;;;;;57.40;22.88;;;;;;;3.53;100.00;103310.97;5108911;27;20476;-73
2022/01/26 08:49:31;;;;;;;62.67;25.05;;;;;;;3.51;100.00;103312.56;5126212;27;20067;-72
2022/01/26 08:51:57;;;;;;;66.40;24.63;;;;;;;3.56;100.00;103306.81;5121365;27;20051;-72
2022/01/26 08:54:22;;;;;;;64.53;26.50;;;;;;;3.55;100.00;103308.50;5107203;27;20028;-73
2022/01/26 08:56:49;;;;;;;63.55;24.63;;;;;;;3.55;100.00;103303.28;5097432;27;20035;-72
2022/01/26 08:59:15;;;;;;;64.35;26.42;;;;;;;3.60;100.00;103315.00;5111789;27;20464;-71
2022/01/26 09:01:41;;;;;;;63.97;23.73;;;;;;;3.60;100.00;103315.00;5113845;27;20062;-72
2022/01/26 09:04:06;;;;;;;67.47;24.27;;;;;;;3.62;100.00;103316.06;5105381;27;20110;-72
2022/01/26 09:06:33;;;;;;;57.80;25.52;;;;;;;3.66;100.00;103314.59;5113342;27;20057;-73
2022/01/26 09:09:04;;;;;;;59.28;22.27;;;;;;;3.68;100.00;103311.34;5102380;28;20181;-72
2022/01/26 09:11:29;;;;;;;53.83;23.05;;;;;;;3.66;100.00;103296.38;5101828;27;20024;-73
2022/01/26 09:13:59;;;;;;;59.92;24.40;;;;;;;3.74;100.00;103300.53;5083229;28;20046;-72
2022/01/26 09:16:25;;;;;;;48.78;22.13;;;;;;;3.77;100.00;103297.28;5119660;27;20478;-73
2022/01/26 09:18:56;;;;;;;43.72;20.63;;;;;;;3.86;100.00;103300.66;5110609;27;20039;-73
2022/01/26 09:21:22;;;;;;;51.20;20.90;;;;;;;3.91;100.00;103299.38;5071956;28;20024;-73
2022/01/26 09:23:48;;;;;;;45.08;21.10;;;;;;;4.01;100.00;103301.94;5119704;27;20027;-73
2022/01/26 09:26:14;;;;;;;45.35;21.20;;;;;;;4.08;100.00;103300.75;5124488;27;20515;-72
2022/01/26 09:28:40;;;;;;;43.47;20.33;;;;;;;4.13;100.00;103295.94;5118006;27;20023;-72
2022/01/26 09:31:06;;;;;;;41.10;19.05;;;;;;;4.15;100.00;103296.97;5103336;27;20028;-73
2022/01/26 09:33:31;;;;;;;49.03;22.48;;;;;;;4.13;100.00;103290.72;5098559;27;20036;-73
2022/01/26 09:35:57;;;;;;;48.15;21.40;;;;;;;4.16;100.00;103291.88;5107569;27;20015;-73
2022/01/26 09:38:22;;;;;;;38.38;19.25;;;;;;;4.18;100.00;103290.31;5113694;27;20031;-73
2022/01/26 09:40:48;;;;;;;40.28;19.85;;;;;;;4.22;99.92;103292.38;5116076;27;20039;-73
2022/01/26 09:43:14;;;;;;;46.60;21.35;;;;;;;4.28;99.43;103296.28;5105264;28;20394;-72
2022/01/26 09:45:40;;;;;;;42.80;20.88;;;;;;;4.30;99.93;103310.34;5120958;27;20482;-72
2022/01/26 09:48:06;;;;;;;38.50;20.13;;;;;;;4.33;99.90;103308.00;5084271;28;20052;-72
2022/01/26 09:50:32;;;;;;;48.08;19.83;;;;;;;4.32;99.46;103304.47;5103206;28;20038;-73
2022/01/26 09:52:58;;;;;;;37.17;19.95;;;;;;;4.38;99.27;103299.78;5108248;28;20434;-72
2022/01/26 09:55:24;;;;;;;43.67;20.45;;;;;;;4.46;99.37;103291.66;5100686;27;20031;-72
2022/01/26 09:57:57;;;;;;;41.00;19.17;;;;;;;4.45;98.63;103285.53;5102187;27;21525;-71
2022/01/26 10:00:22;;;;;;;35.78;18.02;;;;;;;4.49;98.43;103286.69;5116948;27;20019;-73
2022/01/26 10:02:56;;;;;;;36.30;18.73;;;;;;;4.51;98.37;103278.19;5114136;27;20550;-73
2022/01/26 10:05:21;;;;;;;38.72;19.15;;;;;;;4.55;98.58;103277.66;5112308;27;20038;-73
2022/01/26 10:08:10;;;;;;;36.53;18.67;;;;;;;4.60;97.84;103280.66;5105901;27;20019;-72
2022/01/26 10:16:35;;;;;;;39.33;19.17;;;;;;;4.67;97.74;103308.13;5106054;27;20448;-73
2022/01/26 10:18:57;;;;;;;44.80;19.35;;;;;;;4.71;97.60;103305.88;5105693;28;20056;-72
2022/01/26 10:21:25;;;;;;;33.55;18.75;;;;;;;4.70;97.97;103309.28;5098320;28;20027;-73
2022/01/26 10:23:52;;;;;;;36.97;17.85;;;;;;;4.77;97.62;103315.88;5080267;28;20034;-73
2022/01/26 10:26:19;;;;;;;34.40;18.52;;;;;;;4.83;97.95;103305.03;5105903;27;20030;-73
2022/01/26 10:28:58;;;;;;;42.30;19.65;;;;;;;4.85;97.79;103304.38;5099840;27;20479;-73
2022/01/26 10:31:32;;;;;;;42.88;19.10;;;;;;;4.92;97.96;103303.16;5101871;28;20062;-72
2022/01/26 10:33:59;;;;;;;37.13;18.23;;;;;;;4.92;98.08;103310.09;5117532;27;20027;-73
2022/01/26 10:36:25;;;;;;;35.17;18.88;;;;;;;4.91;97.43;103311.81;5103867;27;20088;-73
2022/01/26 10:39:05;;;;;;;39.47;18.95;;;;;;;4.96;97.42;103307.84;5075586;28;20016;-72
2022/01/26 10:41:30;;;;;;;36.13;17.45;;;;;;;5.04;97.04;103308.44;5091374;28;20055;-73
2022/01/26 10:43:57;;;;;;;35.00;18.08;;;;;;;5.07;97.75;103306.06;5109995;27;20051;-73
2022/01/26 10:46:30;;;;;;;34.72;18.27;;;;;;;5.15;97.34;103311.91;5078737;28;20078;-72
2022/01/26 10:57:06;;;;;;;35.95;16.50;;;;;;;5.29;96.22;103297.31;5107393;27;20111;-72
2022/01/26 10:59:37;;;;;;;42.15;17.88;;;;;;;5.37;96.12;103302.34;5099002;27;20479;-72
2022/01/26 11:02:10;;;;;;;31.23;16.05;;;;;;;5.45;95.25;103294.19;5108086;27;20053;-73
2022/01/26 11:04:38;;;;;;;34.28;16.75;;;;;;;5.43;95.32;103272.28;5096356;27;20039;-72
2022/01/26 11:07:06;;;;;;;32.25;15.88;;;;;;;5.47;95.14;103271.75;5098313;28;20028;-72
2022/01/26 11:09:35;;;;;;;30.30;15.65;;;;;;;5.52;95.46;103280.81;5096648;27;20019;-73
2022/01/26 11:12:04;;;;;;;33.10;15.90;;;;;;;5.53;95.08;103272.19;5081962;28;20043;-72
2022/01/26 11:14:44;;;;;;;27.45;14.52;;;;;;;5.54;94.92;103259.25;5107947;27;20024;-72
2022/01/26 11:17:22;;;;;;;29.48;15.88;;;;;;;5.56;94.88;103268.13;5101712;28;20042;-71
2022/01/26 11:19:47;;;;;;;29.52;15.45;;;;;;;5.58;94.54;103271.75;5107853;27;20031;-71
2022/01/26 11:22:14;;;;;;;31.55;15.90;;;;;;;5.64;94.30;103276.50;5089975;27;20018;-71
2022/01/26 11:24:48;;;;;;;36.42;14.68;;;;;;;5.66;94.29;103276.66;5100077;28;20028;-72
2022/01/26 11:27:16;;;;;;;30.55;15.00;;;;;;;5.71;94.21;103270.06;5114566;27;20024;-72
2022/01/26 11:29:46;;;;;;;28.42;14.70;;;;;;;5.67;94.01;103271.56;5102918;27;20032;-73
2022/01/26 11:32:14;;;;;;;28.27;14.27;;;;;;;5.72;94.33;103264.97;5109130;27;20123;-72
2022/01/26 11:34:41;;;;;;;29.02;13.95;;;;;;;5.78;94.29;103264.53;5099432;27;20030;-71
2022/01/26 11:37:09;;;;;;;27.88;14.25;;;;;;;5.84;93.83;103258.84;5104990;28;20035;-71
2022/01/26 11:45:12;;;;;;;26.80;13.57;;;;;;;5.90;93.52;103239.31;5098880;27;20097;-72
2022/01/26 11:47:44;;;;;;;40.92;14.65;;;;;;;5.98;93.41;103244.22;5079705;28;20048;-72
2022/01/26 11:50:12;;;;;;;27.13;13.85;;;;;;;6.02;93.33;103247.19;5103900;28;20391;-72
2022/01/26 11:52:39;;;;;;;26.13;13.10;;;;;;;6.07;93.34;103251.03;5092671;28;20039;-72
2022/01/26 11:55:18;;;;;;;26.05;14.43;;;;;;;6.07;92.70;103252.75;5095196;27;20418;-72
2022/01/26 11:57:50;;;;;;;30.08;14.70;;;;;;;6.06;92.42;103246.63;5114390;27;20030;-72
2022/01/26 12:00:23;;;;;;;31.65;15.73;;;;;;;6.21;92.57;103245.91;5108900;27;20040;-73
2022/01/26 12:05:19;;;;;;;27.35;14.02;;;;;;;6.12;92.43;103245.22;5109531;27;20032;-71
2022/01/26 12:07:56;;;;;;;32.67;14.75;;;;;;;6.13;92.89;103254.91;5083608;27;20047;-72
2022/01/26 12:10:32;;;;;;;25.10;13.68;;;;;;;6.21;92.88;103256.38;5109786;27;20020;-71
2022/01/26 12:13:06;;;;;;;22.30;12.43;;;;;;;6.16;93.22;103257.72;5094629;28;20483;-73
2022/01/26 12:15:46;;;;;;;28.55;13.20;;;;;;;6.15;92.94;103256.84;5092832;27;20028;-72
2022/01/26 12:18:34;;;;;;;27.50;13.02;;;;;;;6.13;92.98;103254.91;5116751;27;20464;-73
2022/01/26 12:32:21;;;;;;;24.05;12.48;;;;;;;6.12;94.45;103240.94;5109355;28;20047;-72
2022/01/26 12:45:24;;;;;;;28.40;13.07;;;;;;;6.18;94.61;103227.41;5108158;27;20492;-72
2022/01/26 12:47:51;;;;;;;23.58;12.27;;;;;;;6.16;95.12;103237.75;5093295;28;20388;-73
2022/01/26 12:50:16;;;;;;;25.48;12.02;;;;;;;6.17;94.57;103228.19;5082235;28;20034;-73
2022/01/26 12:52:51;;;;;;;22.67;10.80;;;;;;;6.17;94.04;103222.97;5090088;28;20032;-72
2022/01/26 12:55:23;;;;;;;26.83;11.98;;;;;;;6.13;94.42;103221.84;5091013;28;20032;-73
2022/01/26 12:57:49;;;;;;;27.80;11.93;;;;;;;6.14;94.50;103223.63;5086927;28;20041;-72
2022/01/26 13:00:16;;;;;;;24.70;12.20;;;;;;;6.13;94.34;103216.63;5106084;28;20063;-72
2022/01/26 13:02:41;;;;;;;22.27;12.07;;;;;;;6.14;95.06;103221.03;5080009;28;20074;-72
2022/01/26 13:05:08;;;;;;;22.95;12.32;;;;;;;6.16;94.54;103213.28;5096849;28;20460;-72
2022/01/26 13:07:33;;;;;;;29.10;12.27;;;;;;;6.17;94.79;103204.66;5069034;28;20464;-73
2022/01/26 13:09:58;;;;;;;31.02;12.45;;;;;;;6.14;95.02;103202.72;5070383;28;20023;-71
2022/01/26 13:12:32;;;;;;;30.80;14.50;;;;;;;6.12;95.52;103204.34;5062517;28;20038;-73
2022/01/26 13:15:13;;;;;;;26.85;12.05;;;;;;;6.11;95.38;103202.50;5059729;28;20530;-73
2022/01/26 13:17:47;;;;;;;28.35;12.90;;;;;;;6.19;95.62;103205.69;5095331;28;20036;-72
2022/01/26 13:23:09;;;;;;;26.38;13.13;;;;;;;6.20;95.44;103203.19;5076706;28;20099;-73
2022/01/26 13:25:55;;;;;;;25.48;12.55;;;;;;;6.22;95.36;103201.56;5086161;28;20020;-74
2022/01/26 13:31:48;;;;;;;24.33;12.10;;;;;;;6.17;95.83;103196.81;5095227;28;20113;-74
2022/01/26 13:34:44;;;;;;;22.25;11.57;;;;;;;6.11;95.94;103196.38;5081847;28;20522;-73
2022/01/26 13:37:45;;;;;;;25.90;12.75;;;;;;;6.12;95.95;103187.72;5075905;28;20025;-73